createdAt,value
2023-01-13T00:01:39.547Z,81816.13
2023-01-13T00:03:36.739Z,81806.22
2023-01-13T00:05:19.032Z,81816.13
2023-01-13T00:06:59.052Z,81816.13
2023-01-13T00:08:34.228Z,81816.13
2023-01-13T00:10:15.116Z,81824.03
2023-01-13T00:11:48.374Z,81845.81
2023-01-13T00:13:27.507Z,81841.84
2023-01-13T00:15:25.917Z,81824.03
2023-01-13T00:16:58.873Z,81837.91
2023-01-13T00:18:37.430Z,81824.03
2023-01-13T00:20:25.003Z,81812.16
2023-01-13T00:22:00.804Z,81887.41
2023-01-13T00:23:40.904Z,81794.34
2023-01-13T00:25:14.105Z,81800.28
2023-01-13T00:26:51.998Z,81796.31
2023-01-13T00:28:27.680Z,81800.28
2023-01-13T00:30:07.869Z,81808.19
2023-01-13T00:31:46.884Z,81782.47
2023-01-13T00:33:28.769Z,81768.59
2023-01-13T00:35:04.579Z,81784.44
2023-01-13T00:36:44.097Z,81768.59
2023-01-13T00:38:17.552Z,81756.72
2023-01-13T00:39:52.731Z,81740.88
2023-01-13T00:41:30.469Z,81742.88
2023-01-13T00:43:24.407Z,81734.94
2023-01-13T00:45:21.283Z,81841.84
2023-01-13T00:47:20.958Z,81730.97
2023-01-13T00:49:42.663Z,81736.91
2023-01-13T00:51:25.946Z,81738.91
2023-01-13T00:53:12.115Z,81727.03
2023-01-13T00:54:46.836Z,81715.16
2023-01-13T00:56:40.102Z,81723.06
2023-01-13T00:58:14.771Z,81725.03
2023-01-13T00:59:58.647Z,81721.09
2023-01-13T01:01:36.498Z,81713.16
2023-01-13T01:03:15.903Z,81711.19
2023-01-13T01:04:50.071Z,81699.31
2023-01-13T01:06:29.711Z,81681.47
2023-01-13T01:08:09.319Z,81681.47
2023-01-13T01:09:42.297Z,81782.47
2023-01-13T01:11:22.131Z,81677.53
2023-01-13T01:12:55.867Z,81788.41
2023-01-13T01:14:29.187Z,81689.41
2023-01-13T01:16:17.775Z,81675.53
2023-01-13T01:17:52.276Z,81675.53
2023-01-13T01:19:30.081Z,81673.56
2023-01-13T01:21:18.873Z,81671.59
2023-01-13T01:22:55.076Z,81667.63
2023-01-13T01:24:34.583Z,81673.56
2023-01-13T01:26:25.335Z,81673.56
2023-01-13T01:28:08.187Z,81681.47
2023-01-13T01:29:41.769Z,81689.41
2023-01-13T01:31:17.529Z,81750.78
2023-01-13T01:33:23.222Z,81665.66
2023-01-13T01:35:17.323Z,81675.53
2023-01-13T01:36:55.749Z,81707.22
2023-01-13T01:38:28.634Z,81711.19
2023-01-13T01:40:06.030Z,81709.19
2023-01-13T01:42:05.706Z,81709.19
2023-01-13T01:44:07.499Z,81699.31
2023-01-13T01:45:52.523Z,81705.25
2023-01-13T01:47:35.419Z,81701.28
2023-01-13T01:53:04.752Z,81762.66
2023-01-13T01:58:30.648Z,81685.44
2023-01-13T02:04:39.824Z,81699.31
2023-01-13T02:06:15.304Z,81721.09
2023-01-13T02:07:51.871Z,81689.41
2023-01-13T02:10:13.366Z,81681.47
2023-01-13T02:12:08.542Z,81697.31
2023-01-13T02:13:56.069Z,81782.47
2023-01-13T02:15:49.657Z,81683.47
2023-01-13T02:18:18.215Z,81681.47
2023-01-13T02:21:21.184Z,81675.53
2023-01-13T02:24:05.194Z,81677.53
2023-01-13T02:25:56.057Z,81673.56
2023-01-13T02:27:35.132Z,81667.63
2023-01-13T02:29:45.934Z,81657.72
2023-01-13T02:31:40.228Z,81665.66
2023-01-13T02:36:44.083Z,81665.66
2023-01-13T02:39:08.221Z,81707.22
2023-01-13T02:41:20.203Z,81647.81
2023-01-13T02:43:39.442Z,81645.84
2023-01-13T02:45:51.844Z,81792.38
2023-01-13T02:47:30.031Z,81645.84
2023-01-13T02:49:10.529Z,81633.97
2023-01-13T02:51:00.353Z,81641.88
2023-01-13T02:52:47.968Z,81740.88
2023-01-13T02:54:26.247Z,81647.81
2023-01-13T02:56:02.520Z,81657.72
2023-01-13T02:57:38.219Z,81843.84
2023-01-13T02:59:12.795Z,81661.69
2023-01-13T03:00:47.691Z,81655.75
2023-01-13T03:02:22.951Z,81669.59
2023-01-13T03:03:55.860Z,81681.47
2023-01-13T03:05:30.494Z,81685.44
2023-01-13T03:07:13.865Z,81669.59
2023-01-13T03:08:51.672Z,81669.59
2023-01-13T03:10:44.576Z,81673.56
2023-01-13T03:12:29.789Z,81681.47
2023-01-13T03:14:20.655Z,81673.56
2023-01-13T03:16:24.240Z,81679.50
2023-01-13T03:18:26.118Z,81691.38
2023-01-13T03:20:11.547Z,81685.44
2023-01-13T03:21:53.813Z,81709.19
2023-01-13T03:23:38.208Z,81709.19
2023-01-13T03:25:29.066Z,81701.28
2023-01-13T03:27:15.744Z,81715.16
2023-01-13T03:29:22.468Z,81711.19
2023-01-13T03:31:03.943Z,81723.06
2023-01-13T03:32:43.145Z,81725.03
2023-01-13T03:34:20.366Z,81727.03
2023-01-13T03:36:02.410Z,81719.09
2023-01-13T03:37:39.803Z,81732.97
2023-01-13T03:39:19.183Z,81732.97
2023-01-13T03:40:56.758Z,81732.97
2023-01-13T03:42:34.400Z,81734.94
2023-01-13T03:44:25.061Z,81729.00
2023-01-13T03:46:02.886Z,81738.91
2023-01-13T03:47:54.383Z,81744.84
2023-01-13T03:49:39.141Z,81752.75
2023-01-13T03:51:17.457Z,81837.91
2023-01-13T03:52:55.361Z,81768.59
2023-01-13T03:54:31.522Z,81782.47
2023-01-13T03:56:37.907Z,81804.25
2023-01-13T03:58:22.907Z,81822.06
2023-01-13T03:59:59.488Z,81822.06
2023-01-13T04:02:07.707Z,81828.00
2023-01-13T04:03:58.635Z,81936.91
2023-01-13T04:05:34.088Z,81859.69
2023-01-13T04:07:54.825Z,81855.72
2023-01-13T04:09:51.842Z,81867.59
2023-01-13T04:11:34.485Z,81879.47
2023-01-13T04:13:11.032Z,81887.41
2023-01-13T04:14:45.586Z,81889.38
2023-01-13T04:16:18.572Z,81895.31
2023-01-13T04:17:52.322Z,81899.28
2023-01-13T04:19:25.486Z,81897.31
2023-01-13T04:21:00.990Z,81891.38
2023-01-13T04:22:33.769Z,81895.31
2023-01-13T04:24:06.814Z,81891.38
2023-01-13T04:25:41.239Z,81899.28
2023-01-13T04:27:14.203Z,81891.38
2023-01-13T04:28:47.302Z,81903.25
2023-01-13T04:30:20.181Z,81899.28
2023-01-13T04:31:53.365Z,81903.25
2023-01-13T04:33:26.211Z,81907.19
2023-01-13T04:34:59.118Z,81928.97
2023-01-13T04:36:31.987Z,81911.16
2023-01-13T04:38:07.428Z,81913.13
2023-01-13T04:39:40.184Z,81903.25
2023-01-13T04:41:12.955Z,81934.91
2023-01-13T04:42:46.032Z,81901.25
2023-01-13T04:44:19.324Z,81901.25
2023-01-13T04:45:52.527Z,81887.41
2023-01-13T04:47:25.499Z,81879.47
2023-01-13T04:48:58.259Z,82071.53
2023-01-13T04:50:31.312Z,81879.47
2023-01-13T04:52:04.389Z,81879.47
2023-01-13T04:53:37.313Z,81871.56
2023-01-13T04:55:10.704Z,81875.53
2023-01-13T04:56:43.884Z,81879.47
2023-01-13T04:58:16.963Z,81960.66
2023-01-13T04:59:50.293Z,81863.63
2023-01-13T05:01:23.347Z,81849.78
2023-01-13T05:02:56.652Z,81855.72
2023-01-13T05:04:29.604Z,81861.66
2023-01-13T05:06:02.979Z,81837.91
2023-01-13T05:07:36.421Z,81835.91
2023-01-13T05:09:09.453Z,81826.03
2023-01-13T05:10:42.473Z,81831.97
2023-01-13T05:12:33.879Z,81826.03
2023-01-13T05:14:25.374Z,81824.03
2023-01-13T05:16:19.591Z,81812.16
2023-01-13T05:17:52.930Z,81816.13
2023-01-13T05:19:26.063Z,81800.28
2023-01-13T05:20:59.085Z,81792.38
2023-01-13T05:22:50.296Z,81784.44
2023-01-13T05:24:41.537Z,81760.69
2023-01-13T05:26:14.509Z,81760.69
2023-01-13T05:27:47.762Z,81766.63
2023-01-13T05:29:20.643Z,81740.88
2023-01-13T05:30:53.611Z,81732.97
2023-01-13T05:32:28.331Z,81721.09
2023-01-13T05:34:01.286Z,81725.03
2023-01-13T05:35:34.178Z,81671.59
2023-01-13T05:37:08.619Z,81572.59
2023-01-13T05:38:42.388Z,81487.47
2023-01-13T05:40:36.458Z,81340.97
2023-01-13T05:42:27.924Z,81164.75
2023-01-13T05:44:01.483Z,81067.75
2023-01-13T05:45:34.530Z,80972.75
2023-01-13T05:47:07.307Z,80941.06
2023-01-13T05:48:43.047Z,80871.78
2023-01-13T05:50:16.515Z,80873.75
2023-01-13T05:51:49.682Z,80798.53
2023-01-13T05:53:23.755Z,80883.66
2023-01-13T05:54:56.723Z,80753.00
2023-01-13T05:56:29.857Z,80705.50
2023-01-13T05:58:02.831Z,80729.25
2023-01-13T05:59:35.592Z,80695.63
2023-01-13T06:01:09.883Z,80846.06
2023-01-13T06:02:42.850Z,80879.69
2023-01-13T06:04:16.062Z,80883.66
2023-01-13T06:05:50.566Z,80887.63
2023-01-13T06:07:23.583Z,80909.41
2023-01-13T06:08:56.569Z,80883.66
2023-01-13T06:10:30.540Z,80893.56
2023-01-13T06:12:03.670Z,80966.81
2023-01-13T06:13:36.941Z,80968.78
2023-01-13T06:15:10.300Z,80986.59
2023-01-13T06:16:44.322Z,80911.38
2023-01-13T06:18:17.655Z,80762.91
2023-01-13T06:19:51.440Z,80711.44
2023-01-13T06:21:24.276Z,80652.06
2023-01-13T06:22:58.235Z,80675.81
2023-01-13T06:24:31.189Z,80644.16
2023-01-13T06:26:19.471Z,80644.16
2023-01-13T06:27:53.626Z,80656.03
2023-01-13T06:29:26.521Z,80572.88
2023-01-13T06:31:03.543Z,80654.03
2023-01-13T06:32:43.781Z,80733.22
2023-01-13T06:34:17.221Z,80705.50
2023-01-13T06:35:54.464Z,80646.13
2023-01-13T06:37:29.371Z,80745.09
2023-01-13T06:39:04.627Z,80762.91
2023-01-13T06:40:37.806Z,80836.16
2023-01-13T06:42:29.500Z,80865.84
2023-01-13T06:44:03.307Z,80923.25
2023-01-13T06:45:36.939Z,81061.81
2023-01-13T06:47:10.414Z,80984.63
2023-01-13T06:48:44.013Z,80972.75
2023-01-13T06:50:18.715Z,80960.88
2023-01-13T06:51:51.791Z,80966.81
2023-01-13T06:53:24.961Z,80986.59
2023-01-13T06:54:58.073Z,81020.25
2023-01-13T06:56:30.943Z,81000.47
2023-01-13T06:58:04.074Z,81091.53
2023-01-13T06:59:37.046Z,81055.88
2023-01-13T07:01:10.378Z,81089.53
2023-01-13T07:02:43.528Z,81113.28
2023-01-13T07:04:16.871Z,81164.75
2023-01-13T07:05:54.859Z,81222.16
2023-01-13T07:07:27.928Z,81186.53
2023-01-13T07:09:00.617Z,81210.28
2023-01-13T07:10:34.778Z,81218.22
2023-01-13T07:12:07.910Z,81269.69
2023-01-13T07:13:59.152Z,81249.88
2023-01-13T07:15:31.999Z,81234.06
2023-01-13T07:17:05.264Z,81226.13
2023-01-13T07:18:38.381Z,81269.69
2023-01-13T07:20:11.685Z,81232.06
2023-01-13T07:21:44.521Z,81236.03
2023-01-13T07:23:17.486Z,81238.00
2023-01-13T07:24:50.656Z,81238.00
2023-01-13T07:26:23.579Z,81198.41
2023-01-13T07:27:58.519Z,81238.00
2023-01-13T07:29:31.502Z,81275.63
2023-01-13T07:31:05.449Z,81238.00
2023-01-13T07:32:38.334Z,81224.16
2023-01-13T07:34:11.108Z,81228.13
2023-01-13T07:35:44.276Z,81241.97
2023-01-13T07:37:17.224Z,81241.97
2023-01-13T07:38:50.046Z,81224.16
2023-01-13T07:40:22.841Z,81240.00
2023-01-13T07:42:14.726Z,81238.00
2023-01-13T07:43:48.320Z,81301.38
2023-01-13T07:45:21.143Z,81214.25
2023-01-13T07:46:53.997Z,81200.41
2023-01-13T07:48:28.107Z,81285.53
2023-01-13T07:50:01.032Z,81241.97
2023-01-13T07:51:39.683Z,81299.38
2023-01-13T07:53:12.623Z,81202.38
2023-01-13T07:54:45.768Z,81263.75
2023-01-13T07:56:19.773Z,81222.16
2023-01-13T07:57:52.683Z,81234.06
2023-01-13T07:59:25.704Z,81241.97
2023-01-13T08:00:59.103Z,81249.88
2023-01-13T08:02:32.446Z,81236.03
2023-01-13T08:04:05.649Z,81218.22
2023-01-13T08:05:38.709Z,81241.97
2023-01-13T08:07:12.075Z,81238.00
2023-01-13T08:08:44.849Z,81222.16
2023-01-13T08:10:17.764Z,81354.81
2023-01-13T08:12:14.060Z,81251.88
2023-01-13T08:13:47.477Z,81214.25
2023-01-13T08:15:20.363Z,81243.94
2023-01-13T08:16:53.314Z,81238.00
2023-01-13T08:18:26.333Z,81243.94
2023-01-13T08:19:59.531Z,81238.00
2023-01-13T08:21:32.479Z,81226.13
2023-01-13T08:23:07.225Z,81245.94
2023-01-13T08:24:40.720Z,81253.84
2023-01-13T08:26:17.475Z,81352.84
2023-01-13T08:27:50.598Z,81301.38
2023-01-13T08:29:23.449Z,81245.94
2023-01-13T08:31:00.379Z,81245.94
2023-01-13T08:32:33.457Z,81261.75
2023-01-13T08:34:06.386Z,81281.56
2023-01-13T08:35:40.695Z,81267.72
2023-01-13T08:37:13.755Z,81249.88
2023-01-13T08:38:46.755Z,81261.75
2023-01-13T08:40:21.921Z,81279.59
2023-01-13T08:41:58.851Z,81259.78
2023-01-13T08:43:31.968Z,81289.47
2023-01-13T08:45:06.115Z,81368.66
2023-01-13T08:46:39.097Z,81289.47
2023-01-13T08:48:12.191Z,81281.56
2023-01-13T08:49:45.141Z,81283.53
2023-01-13T08:51:18.135Z,81297.41
2023-01-13T08:52:51.116Z,81338.97
2023-01-13T08:54:24.587Z,81271.66
2023-01-13T08:56:30.272Z,81265.72
2023-01-13T08:58:15.990Z,81263.75
2023-01-13T09:00:17.441Z,81245.94
2023-01-13T09:01:51.285Z,81245.94
2023-01-13T09:03:57.025Z,81323.13
2023-01-13T09:05:30.306Z,81236.03
2023-01-13T09:07:03.477Z,81261.75
2023-01-13T09:08:45.217Z,81243.94
2023-01-13T09:10:18.379Z,81243.94
2023-01-13T09:12:36.466Z,81267.72
2023-01-13T09:14:24.986Z,81241.97
2023-01-13T09:16:01.555Z,81234.06
2023-01-13T09:17:53.852Z,81354.81
2023-01-13T09:19:29.761Z,81245.94
2023-01-13T09:21:11.549Z,81224.16
2023-01-13T09:22:44.643Z,81253.84
2023-01-13T09:24:18.592Z,81313.25
2023-01-13T09:26:05.485Z,81338.97
2023-01-13T09:27:49.390Z,81281.56
2023-01-13T09:31:51.706Z,81253.84
2023-01-13T09:35:32.835Z,81263.75
2023-01-13T09:37:07.600Z,81267.72
2023-01-13T09:38:40.557Z,81277.59
2023-01-13T09:40:22.991Z,81277.59
2023-01-13T09:42:17.740Z,81281.56
2023-01-13T09:43:56.431Z,81289.47
2023-01-13T09:45:42.926Z,81311.25
2023-01-13T09:47:31.402Z,81317.19
2023-01-13T09:49:05.353Z,81321.16
2023-01-13T09:51:14.004Z,81315.22
2023-01-13T09:52:48.298Z,81325.13
2023-01-13T09:56:55.353Z,81321.16
2023-01-13T09:59:09.815Z,81319.19
2023-01-13T10:01:29.536Z,81432.03
2023-01-13T10:03:46.510Z,81418.16
2023-01-13T10:05:38.950Z,81350.84
2023-01-13T10:07:15.596Z,81329.06
2023-01-13T10:08:51.493Z,81513.19
2023-01-13T10:10:42.570Z,81344.91
2023-01-13T10:12:42.168Z,81483.50
2023-01-13T10:14:56.068Z,81364.72
2023-01-13T10:17:11.647Z,81439.94
2023-01-13T10:19:38.337Z,81374.63
2023-01-13T10:22:02.098Z,81362.72
2023-01-13T10:24:00.682Z,81376.59
2023-01-13T10:25:40.315Z,81384.50
2023-01-13T10:27:17.270Z,81376.59
2023-01-13T10:28:57.511Z,81384.50
2023-01-13T10:30:39.529Z,81378.56
2023-01-13T10:32:12.410Z,81400.34
2023-01-13T10:33:45.176Z,81388.47
2023-01-13T10:35:18.170Z,81392.44
2023-01-13T10:37:07.190Z,81396.38
2023-01-13T10:38:43.062Z,81408.28
2023-01-13T10:40:18.891Z,81461.72
2023-01-13T10:42:02.836Z,81396.38
2023-01-13T10:43:35.845Z,81529.03
2023-01-13T10:45:24.716Z,81412.22
2023-01-13T10:46:59.956Z,81418.16
2023-01-13T10:48:56.395Z,81414.22
2023-01-13T10:50:29.799Z,81408.28
2023-01-13T10:52:04.285Z,81420.16
2023-01-13T10:53:54.012Z,81499.34
2023-01-13T10:55:37.497Z,81424.09
2023-01-13T10:57:21.119Z,81426.09
2023-01-13T10:59:13.664Z,81424.09
2023-01-13T11:00:48.012Z,81414.22
2023-01-13T11:02:36.308Z,81428.06
2023-01-13T11:04:39.836Z,81408.28
2023-01-13T11:06:25.359Z,81410.25
2023-01-13T11:07:58.520Z,81420.16
2023-01-13T11:09:32.332Z,81437.97
2023-01-13T11:11:46.026Z,81416.19
2023-01-13T11:14:02.791Z,81434.00
2023-01-13T11:15:59.016Z,81434.00
2023-01-13T11:17:41.569Z,81455.78
2023-01-13T11:19:19.333Z,81459.75
2023-01-13T11:21:03.144Z,81475.59
2023-01-13T11:22:56.027Z,81469.63
2023-01-13T11:24:37.175Z,81481.53
2023-01-13T11:26:41.134Z,81491.41
2023-01-13T11:28:39.610Z,81475.59
2023-01-13T11:30:30.052Z,81538.94
2023-01-13T11:32:17.892Z,81475.59
2023-01-13T11:34:13.670Z,81491.41
2023-01-13T11:35:46.643Z,81495.38
2023-01-13T11:37:31.644Z,81485.47
2023-01-13T11:39:25.034Z,81574.56
2023-01-13T11:41:02.202Z,81497.34
2023-01-13T11:42:56.240Z,81497.34
2023-01-13T11:45:09.552Z,81511.22
2023-01-13T11:46:42.814Z,81523.09
2023-01-13T11:48:22.446Z,81523.09
2023-01-13T11:49:56.083Z,81637.94
2023-01-13T11:51:38.923Z,81562.69
2023-01-13T11:53:17.815Z,81560.72
2023-01-13T11:55:04.713Z,81562.69
2023-01-13T11:56:43.796Z,81588.44
2023-01-13T11:58:50.600Z,81592.38
2023-01-13T12:00:53.841Z,81594.38
2023-01-13T12:03:03.253Z,81630.00
2023-01-13T12:04:59.726Z,81630.00
2023-01-13T12:06:36.356Z,81633.97
2023-01-13T12:08:26.830Z,81633.97
2023-01-13T12:10:13.096Z,81632.00
2023-01-13T12:12:23.047Z,81643.88
2023-01-13T12:14:01.928Z,81653.78
2023-01-13T12:16:00.911Z,81649.81
2023-01-13T12:17:51.872Z,81649.81
2023-01-13T12:19:32.841Z,81645.84
2023-01-13T12:21:18.165Z,81661.69
2023-01-13T12:22:54.424Z,81665.66
2023-01-13T12:24:46.340Z,81667.63
2023-01-13T12:26:19.384Z,81677.53
2023-01-13T12:28:05.049Z,81679.50
2023-01-13T12:29:38.851Z,81689.41
2023-01-13T12:31:13.058Z,81705.25
2023-01-13T12:32:46.855Z,81685.44
2023-01-13T12:34:28.239Z,81679.50
2023-01-13T12:36:21.553Z,81685.44
2023-01-13T12:38:15.125Z,81695.34
2023-01-13T12:40:04.781Z,81837.91
2023-01-13T12:42:00.755Z,81683.47
2023-01-13T12:43:52.595Z,81693.38
2023-01-13T12:45:33.105Z,81699.31
2023-01-13T12:47:36.908Z,81697.31
2023-01-13T12:49:21.672Z,81713.16
2023-01-13T12:51:06.188Z,81715.16
2023-01-13T12:52:46.102Z,81705.25
2023-01-13T12:54:31.278Z,81711.19
2023-01-13T12:56:27.168Z,81711.19
2023-01-13T12:58:05.959Z,81713.16
2023-01-13T12:59:38.882Z,81717.13
2023-01-13T13:01:14.789Z,81721.09
2023-01-13T13:03:19.290Z,81719.09
2023-01-13T13:04:56.384Z,81717.13
2023-01-13T13:06:31.900Z,81725.03
2023-01-13T13:08:15.002Z,81723.06
2023-01-13T13:09:58.084Z,81725.03
2023-01-13T13:12:03.923Z,81727.03
2023-01-13T13:13:48.996Z,81729.00
2023-01-13T13:15:36.322Z,81744.84
2023-01-13T13:17:31.909Z,81740.88
2023-01-13T13:19:30.831Z,81744.84
2023-01-13T13:21:11.078Z,81752.75
2023-01-13T13:22:50.657Z,81766.63
2023-01-13T13:24:24.454Z,81770.59
2023-01-13T13:26:15.419Z,81772.56
2023-01-13T13:28:02.962Z,81899.28
2023-01-13T13:29:44.077Z,81944.81
2023-01-13T13:31:25.249Z,81784.44
2023-01-13T13:33:14.809Z,81861.66
2023-01-13T13:35:09.275Z,81788.41
2023-01-13T13:36:50.833Z,81822.06
2023-01-13T13:39:25.350Z,81820.09
2023-01-13T13:41:16.943Z,81812.16
2023-01-13T13:43:16.351Z,81816.13
2023-01-13T13:45:09.541Z,81938.88
2023-01-13T13:46:47.095Z,81940.84
2023-01-13T13:48:21.341Z,81826.03
2023-01-13T13:49:54.772Z,81835.91
2023-01-13T13:51:41.120Z,81839.88
2023-01-13T13:53:14.514Z,81857.69
2023-01-13T13:54:54.849Z,81853.75
2023-01-13T13:56:30.026Z,82065.59
2023-01-13T13:58:03.270Z,81867.59
2023-01-13T13:59:40.216Z,81877.50
2023-01-13T14:01:25.197Z,81883.44
2023-01-13T14:03:05.892Z,81889.38
2023-01-13T14:04:39.448Z,81893.34
2023-01-13T14:06:24.622Z,81891.38
2023-01-13T14:08:25.038Z,81899.28
2023-01-13T14:09:59.885Z,81911.16
2023-01-13T14:11:34.414Z,81911.16
2023-01-13T14:13:21.416Z,81915.13
2023-01-13T14:14:57.794Z,81923.03
2023-01-13T14:16:32.494Z,81927.00
2023-01-13T14:18:12.821Z,81919.09
2023-01-13T14:20:11.967Z,82063.63
2023-01-13T14:21:48.623Z,81930.97
2023-01-13T14:23:26.781Z,81950.75
2023-01-13T14:25:02.145Z,81970.56
2023-01-13T14:26:35.787Z,81970.56
2023-01-13T14:28:25.663Z,81966.59
2023-01-13T14:30:02.475Z,81964.63
2023-01-13T14:31:36.375Z,81972.53
2023-01-13T14:33:16.973Z,81978.47
2023-01-13T14:34:51.796Z,81964.63
2023-01-13T14:36:33.440Z,81962.66
2023-01-13T14:38:06.470Z,82057.69
2023-01-13T14:39:41.861Z,81982.44
2023-01-13T14:41:22.491Z,81986.41
2023-01-13T14:42:59.860Z,81986.41
2023-01-13T14:44:37.500Z,82229.97
2023-01-13T14:46:10.852Z,81986.41
2023-01-13T14:47:52.997Z,81976.50
2023-01-13T14:49:43.116Z,81998.28
2023-01-13T14:51:28.381Z,81996.31
2023-01-13T14:53:02.647Z,82024.03
2023-01-13T14:54:38.181Z,82022.03
2023-01-13T14:56:38.848Z,82035.91
2023-01-13T14:58:28.552Z,82022.03
2023-01-13T15:00:16.735Z,82020.06
2023-01-13T15:01:49.722Z,82031.94
2023-01-13T15:03:23.460Z,82031.94
2023-01-13T15:05:19.275Z,82033.94
2023-01-13T15:06:56.138Z,82059.66
2023-01-13T15:08:33.967Z,82077.47
2023-01-13T15:10:17.435Z,82081.44
2023-01-13T15:11:50.361Z,82091.34
2023-01-13T15:13:32.510Z,82097.28
2023-01-13T15:15:33.105Z,82081.44
2023-01-13T15:17:16.437Z,82061.66
2023-01-13T15:18:49.799Z,82097.28
2023-01-13T15:20:25.131Z,82055.69
2023-01-13T15:21:58.111Z,82063.63
2023-01-13T15:23:31.028Z,82067.59
2023-01-13T15:25:04.636Z,82079.47
2023-01-13T15:26:37.676Z,82089.38
2023-01-13T15:28:21.830Z,82081.44
2023-01-13T15:29:54.695Z,82099.25
2023-01-13T15:31:28.733Z,82095.31
2023-01-13T15:33:01.735Z,82107.19
2023-01-13T15:34:34.747Z,82093.31
2023-01-13T15:36:24.087Z,82109.16
2023-01-13T15:37:57.947Z,82105.22
2023-01-13T15:39:30.864Z,82115.09
2023-01-13T15:41:03.775Z,82113.13
2023-01-13T15:42:55.388Z,82109.16
2023-01-13T15:44:46.827Z,82097.28
2023-01-13T15:46:38.707Z,82085.41
2023-01-13T15:48:11.839Z,82083.44
2023-01-13T15:49:46.934Z,82065.59
2023-01-13T15:51:21.468Z,82065.59
2023-01-13T15:52:54.328Z,82061.66
2023-01-13T15:54:27.195Z,82047.78
2023-01-13T15:56:01.008Z,82051.75
2023-01-13T15:57:36.859Z,82045.81
2023-01-13T15:59:17.107Z,82041.84
2023-01-13T16:00:49.971Z,82045.81
2023-01-13T16:02:23.839Z,82033.94
2023-01-13T16:03:57.023Z,82018.09
2023-01-13T16:05:29.915Z,82014.13
2023-01-13T16:07:03.011Z,82016.09
2023-01-13T16:08:35.976Z,82027.97
2023-01-13T16:10:18.177Z,82031.94
2023-01-13T16:11:51.137Z,82043.81
2023-01-13T16:13:23.962Z,82109.16
2023-01-13T16:14:56.973Z,82047.78
2023-01-13T16:16:30.480Z,82065.59
2023-01-13T16:18:05.228Z,82063.63
2023-01-13T16:19:38.155Z,82073.53
2023-01-13T16:21:14.230Z,82077.47
2023-01-13T16:22:47.422Z,82073.53
2023-01-13T16:24:20.404Z,82085.41
2023-01-13T16:25:53.402Z,82093.31
2023-01-13T16:27:26.537Z,82085.41
2023-01-13T16:28:59.674Z,82081.44
2023-01-13T16:30:37.474Z,82079.47
2023-01-13T16:32:10.906Z,82271.53
2023-01-13T16:33:43.864Z,82008.19
2023-01-13T16:35:19.247Z,82049.75
2023-01-13T16:36:52.101Z,82059.66
2023-01-13T16:38:25.198Z,82047.78
2023-01-13T16:39:58.013Z,82033.94
2023-01-13T16:41:31.195Z,82051.75
2023-01-13T16:43:06.962Z,82071.53
2023-01-13T16:44:39.729Z,82081.44
2023-01-13T16:46:26.926Z,82081.44
2023-01-13T16:48:00.535Z,82073.53
2023-01-13T16:49:33.569Z,82065.59
2023-01-13T16:51:06.455Z,82130.94
2023-01-13T16:52:39.667Z,82069.56
2023-01-13T16:54:12.706Z,82077.47
2023-01-13T16:55:45.610Z,82077.47
2023-01-13T16:57:18.381Z,82093.31
2023-01-13T16:58:53.462Z,82103.22
2023-01-13T17:00:26.437Z,82130.94
2023-01-13T17:01:59.608Z,82127.00
2023-01-13T17:03:36.176Z,82136.88
2023-01-13T17:05:12.909Z,82136.88
2023-01-13T17:07:01.179Z,82140.84
2023-01-13T17:08:34.099Z,82152.72
2023-01-13T17:10:07.440Z,82140.84
2023-01-13T17:11:41.007Z,82125.00
2023-01-13T17:13:16.957Z,82121.06
2023-01-13T17:14:50.192Z,82109.16
2023-01-13T17:16:26.411Z,82095.31
2023-01-13T17:17:59.334Z,82075.50
2023-01-13T17:19:32.301Z,82061.66
2023-01-13T17:21:05.451Z,82055.69
2023-01-13T17:22:38.560Z,82041.84
2023-01-13T17:24:12.629Z,82043.81
2023-01-13T17:25:45.796Z,82049.75
2023-01-13T17:27:21.359Z,82307.19
2023-01-13T17:28:54.219Z,82071.53
2023-01-13T17:30:27.152Z,82077.47
2023-01-13T17:32:01.290Z,82089.38
2023-01-13T17:33:37.391Z,82097.28
2023-01-13T17:35:10.727Z,82103.22
2023-01-13T17:36:45.163Z,82176.50
2023-01-13T17:38:18.289Z,82115.09
2023-01-13T17:39:54.295Z,82123.03
2023-01-13T17:41:27.322Z,82125.00
2023-01-13T17:43:00.924Z,82128.97
2023-01-13T17:44:34.011Z,82125.00
2023-01-13T17:46:11.908Z,82097.28
2023-01-13T17:47:47.350Z,82115.09
2023-01-13T17:49:26.454Z,82123.03
2023-01-13T17:51:28.068Z,82115.09
2023-01-13T17:53:06.339Z,82128.97
2023-01-13T17:55:00.470Z,82269.56
2023-01-13T17:58:42.103Z,82140.84
2023-01-13T18:01:11.309Z,82271.53
2023-01-13T18:02:45.873Z,82154.72
2023-01-13T18:04:24.912Z,82160.66
2023-01-13T18:06:26.775Z,82160.66
2023-01-13T18:08:42.728Z,82168.56
2023-01-13T18:10:37.936Z,82188.38
2023-01-13T18:12:12.817Z,82184.41
2023-01-13T18:16:19.502Z,82326.97
2023-01-13T18:17:52.424Z,82200.25
2023-01-13T18:19:50.266Z,82202.22
2023-01-13T18:22:04.059Z,82192.34
2023-01-13T18:23:55.257Z,82184.41
2023-01-13T18:26:28.517Z,82180.44
2023-01-13T18:28:07.205Z,82176.50
2023-01-13T18:29:40.874Z,82180.44
2023-01-13T18:33:47.299Z,82158.66
2023-01-13T18:35:20.465Z,82150.75
2023-01-13T18:36:53.736Z,82140.84
2023-01-13T18:38:29.646Z,82140.84
2023-01-13T18:40:02.808Z,82259.66
2023-01-13T18:42:13.923Z,82128.97
2023-01-13T18:43:47.036Z,82134.91
2023-01-13T18:45:24.507Z,82125.00
2023-01-13T18:46:57.423Z,82121.06
2023-01-13T18:48:31.556Z,82113.13
2023-01-13T18:50:05.438Z,82128.97
2023-01-13T18:51:39.954Z,82117.09
2023-01-13T18:53:13.270Z,82121.06
2023-01-13T18:54:47.992Z,82113.13
2023-01-13T18:56:21.647Z,82113.13
2023-01-13T18:57:55.866Z,82113.13
2023-01-13T18:59:29.260Z,82115.09
2023-01-13T19:01:05.463Z,82134.91
2023-01-13T19:02:39.597Z,82113.13
2023-01-13T19:04:17.769Z,82105.22
2023-01-13T19:05:51.492Z,82105.22
2023-01-13T19:07:27.218Z,82103.22
2023-01-13T19:09:08.724Z,82105.22
2023-01-13T19:10:41.745Z,82107.19
2023-01-13T19:12:16.361Z,82073.53
2023-01-13T19:13:51.589Z,82105.22
2023-01-13T19:15:25.301Z,82109.16
2023-01-13T19:16:58.764Z,82111.16
2023-01-13T19:18:36.736Z,82111.16
2023-01-13T19:20:11.662Z,82198.28
2023-01-13T19:21:44.892Z,82119.06
2023-01-13T19:23:18.186Z,82111.16
2023-01-13T19:24:51.260Z,82117.09
2023-01-13T19:26:24.126Z,82128.97
2023-01-13T19:27:57.276Z,82132.94
2023-01-13T19:29:33.168Z,82144.81
2023-01-13T19:31:09.033Z,82138.88
2023-01-13T19:32:41.958Z,82132.94
2023-01-13T19:34:15.046Z,82132.94
2023-01-13T19:35:48.001Z,82142.84
2023-01-13T19:37:20.907Z,82132.94
2023-01-13T19:38:53.796Z,82125.00
2023-01-13T19:40:27.573Z,82119.06
2023-01-13T19:42:19.732Z,82237.88
2023-01-13T19:44:10.981Z,82113.13
2023-01-13T19:45:46.402Z,82121.06
2023-01-13T19:47:19.636Z,82103.22
2023-01-13T19:48:52.607Z,82103.22
2023-01-13T19:50:25.701Z,82097.28
2023-01-13T19:51:58.860Z,82103.22
2023-01-13T19:53:32.321Z,82109.16
2023-01-13T19:55:05.461Z,82115.09
2023-01-13T19:56:38.498Z,82140.84
2023-01-13T19:58:11.462Z,82144.81
2023-01-13T19:59:44.298Z,82148.78
2023-01-13T20:01:17.311Z,82156.69
2023-01-13T20:02:53.475Z,82172.53
2023-01-13T20:04:34.284Z,82192.34
2023-01-13T20:06:10.587Z,82210.16
2023-01-13T20:07:46.442Z,82237.88
2023-01-13T20:09:19.350Z,82241.84
2023-01-13T20:11:12.414Z,82224.00
2023-01-13T20:12:45.319Z,82227.97
2023-01-13T20:14:19.335Z,82220.06
2023-01-13T20:15:53.512Z,82206.19